Bradley International Airpor, Connecticut
Current Conditions -  °F | °C
As of 11:51 PM on Friday 24 Oct 2014 (Local Time) from KBDL Reporting Station
Few Clouds Few Clouds  
Wind Chill: 51°   Ceiling: Unl
Heat Index: 51°   Visibility: 10mi
Dew Point: 42°   Wind: 9mph
Humidity: 71%   Direction: 330°NNW
Pressure: 29.79"   Gusts: NA
Location:  41.9268°N, 72.6555°W
Report Text: KBDL 250351Z 33008KT 10SM FEW140 11/06 A2979 RMK AO2 SLP087 T01060056
Loading
Personal Weather Stations






























Interactive Weather Map
Tropical Storm Tracking
New forecast layout! Learn more

10-Day Weather Forecast

Advertisements
Track Severe Weather on mobile